createdAt,value
2018-09-05T00:01:02.036Z,99.90
2018-09-05T00:03:30.836Z,99.90
2018-09-05T00:05:59.944Z,99.90
2018-09-05T00:08:35.463Z,99.90
2018-09-05T00:11:15.687Z,99.90
2018-09-05T00:13:56.514Z,99.90
2018-09-05T00:16:37.143Z,99.90
2018-09-05T00:19:06.255Z,99.90
2018-09-05T00:21:46.462Z,99.90
2018-09-05T00:24:27.275Z,99.90
2018-09-05T00:27:07.956Z,99.90
2018-09-05T00:29:48.833Z,99.90
2018-09-05T00:32:29.671Z,99.90
2018-09-05T00:35:10.079Z,99.90
2018-09-05T00:37:50.585Z,99.90
2018-09-05T00:40:31.265Z,99.90
2018-09-05T00:43:11.985Z,99.90
2018-09-05T00:45:43.743Z,99.90
2018-09-05T00:48:13.044Z,99.90
2018-09-05T00:50:53.289Z,99.90
2018-09-05T00:53:33.896Z,99.90
2018-09-05T00:56:14.556Z,99.90
2018-09-05T00:58:55.262Z,99.90
2018-09-05T01:01:35.782Z,99.90
2018-09-05T01:04:04.056Z,99.90
2018-09-05T01:06:34.324Z,99.90
2018-09-05T01:09:06.090Z,99.90
2018-09-05T01:11:34.493Z,99.90
2018-09-05T01:14:11.364Z,99.90
2018-09-05T01:16:52.361Z,99.90
2018-09-05T01:19:20.630Z,99.90
2018-09-05T01:21:48.894Z,99.90
2018-09-05T01:24:29.693Z,99.90
2018-09-05T01:27:10.955Z,99.90
2018-09-05T01:29:52.059Z,99.90
2018-09-05T01:32:20.362Z,99.90
2018-09-05T01:35:01.414Z,99.90
2018-09-05T01:37:42.114Z,99.90
2018-09-05T01:40:11.004Z,99.90
2018-09-05T01:42:51.346Z,99.90
2018-09-05T01:45:19.712Z,99.90
2018-09-05T01:47:59.963Z,99.90
2018-09-05T01:50:45.604Z,99.90
2018-09-05T01:53:26.326Z,99.90
2018-09-05T01:56:07.154Z,99.90
2018-09-05T01:58:47.734Z,99.90
2018-09-05T02:01:28.499Z,99.90
2018-09-05T02:03:56.825Z,99.90
2018-09-05T02:06:40.056Z,99.90
2018-09-05T02:09:10.189Z,99.90
2018-09-05T02:11:51.021Z,99.90
2018-09-05T02:14:31.541Z,99.90
2018-09-05T02:17:12.152Z,99.90
2018-09-05T02:19:40.548Z,99.90
2018-09-05T02:22:21.432Z,99.90
2018-09-05T02:24:49.664Z,99.90
2018-09-05T02:27:30.790Z,99.90
2018-09-05T02:30:11.401Z,99.90
2018-09-05T02:32:39.696Z,99.90
2018-09-05T02:35:19.787Z,99.90
2018-09-05T02:37:48.404Z,99.90
2018-09-05T02:40:29.339Z,99.90
2018-09-05T02:43:09.899Z,99.90
2018-09-05T02:45:50.722Z,99.90
2018-09-05T02:48:19.743Z,99.90
2018-09-05T02:51:00.010Z,99.90
2018-09-05T02:53:28.730Z,99.90
2018-09-05T02:56:03.842Z,99.90
2018-09-05T02:58:33.664Z,99.90
2018-09-05T03:01:01.878Z,99.90
2018-09-05T03:03:42.748Z,99.90
2018-09-05T03:06:23.461Z,99.90
2018-09-05T03:09:04.986Z,99.90
2018-09-05T03:11:45.767Z,99.90
2018-09-05T03:14:26.416Z,99.90
2018-09-05T03:17:06.999Z,99.90
2018-09-05T03:19:47.621Z,99.90
2018-09-05T03:22:15.916Z,99.90
2018-09-05T03:24:56.118Z,99.90
2018-09-05T03:27:36.738Z,99.90
2018-09-05T03:30:05.361Z,99.90
2018-09-05T03:32:33.736Z,99.90
2018-09-05T03:35:02.065Z,99.90
2018-09-05T03:37:42.772Z,99.90
2018-09-05T03:40:16.022Z,99.90
2018-09-05T03:42:44.326Z,99.90
2018-09-05T03:45:13.434Z,99.90
2018-09-05T03:47:41.946Z,99.90
2018-09-05T03:50:22.896Z,99.90
2018-09-05T03:52:54.095Z,99.90
2018-09-05T03:55:22.358Z,99.90
2018-09-05T03:58:03.102Z,99.90
2018-09-05T04:00:43.796Z,99.90
2018-09-05T04:03:24.401Z,99.90
2018-09-05T04:06:05.208Z,99.90
2018-09-05T04:08:33.483Z,99.90
2018-09-05T04:11:01.778Z,99.90
2018-09-05T04:13:33.068Z,99.90
2018-09-05T04:16:13.190Z,99.90
2018-09-05T04:18:53.869Z,99.90
2018-09-05T04:21:34.477Z,99.90
2018-09-05T04:24:02.846Z,99.90
2018-09-05T04:26:31.083Z,99.90
2018-09-05T04:29:11.838Z,99.90
2018-09-05T04:31:52.427Z,99.90
2018-09-05T04:34:33.285Z,99.90
2018-09-05T04:37:13.954Z,99.90
2018-09-05T04:39:54.633Z,99.90
2018-09-05T04:42:23.203Z,99.90
2018-09-05T04:45:04.323Z,99.90
2018-09-05T04:47:45.387Z,99.90
2018-09-05T04:50:16.261Z,99.90
2018-09-05T04:52:45.307Z,99.90
2018-09-05T04:55:14.785Z,99.90
2018-09-05T04:57:46.136Z,99.90
2018-09-05T05:00:14.362Z,99.90
2018-09-05T05:02:54.537Z,99.90
2018-09-05T05:05:22.858Z,99.90
2018-09-05T05:07:50.997Z,99.90
2018-09-05T05:10:32.832Z,99.90
2018-09-05T05:13:13.193Z,99.90
2018-09-05T05:15:53.581Z,99.90
2018-09-05T05:18:36.440Z,99.90
2018-09-05T05:21:16.864Z,99.90
2018-09-05T05:23:57.533Z,99.90
2018-09-05T05:26:41.128Z,99.90
2018-09-05T05:29:16.476Z,99.90
2018-09-05T05:31:57.551Z,99.90
2018-09-05T05:34:26.366Z,99.90
2018-09-05T05:37:07.248Z,99.90
2018-09-05T05:39:36.334Z,99.90
2018-09-05T05:42:16.974Z,99.90
2018-09-05T05:44:57.441Z,99.90
2018-09-05T05:47:38.124Z,99.90
2018-09-05T05:50:06.726Z,99.90
2018-09-05T05:52:34.915Z,99.90
2018-09-05T05:55:03.808Z,99.90
2018-09-05T05:57:44.042Z,99.90
2018-09-05T06:00:25.802Z,99.90
2018-09-05T06:03:06.613Z,99.90
2018-09-05T06:05:36.273Z,99.90
2018-09-05T06:08:16.896Z,99.90
2018-09-05T06:10:58.317Z,99.90
2018-09-05T06:13:26.596Z,99.90
2018-09-05T06:15:54.906Z,99.90
2018-09-05T06:18:23.244Z,99.90
2018-09-05T06:20:53.561Z,99.90
2018-09-05T06:23:34.306Z,99.90
2018-09-05T06:26:14.894Z,99.90
2018-09-05T06:28:55.368Z,99.90
2018-09-05T06:31:36.039Z,99.90
2018-09-05T06:34:16.714Z,99.90
2018-09-05T06:36:57.484Z,99.90
2018-09-05T06:39:27.334Z,99.90
2018-09-05T06:42:07.879Z,99.90
2018-09-05T06:44:48.678Z,99.90
2018-09-05T06:47:16.933Z,99.90
2018-09-05T06:49:45.173Z,99.90
2018-09-05T06:52:25.667Z,99.90
2018-09-05T06:55:06.183Z,99.90
2018-09-05T06:57:34.505Z,99.90
2018-09-05T07:00:16.778Z,99.90
2018-09-05T07:02:47.353Z,99.90
2018-09-05T07:05:16.156Z,99.90
2018-09-05T07:07:44.470Z,99.90
2018-09-05T07:10:12.861Z,99.90
2018-09-05T07:12:41.080Z,99.90
2018-09-05T07:15:09.393Z,99.90
2018-09-05T07:17:50.098Z,99.90
2018-09-05T07:20:18.364Z,99.90
2018-09-05T07:22:46.793Z,99.90
2018-09-05T07:25:27.250Z,99.90
2018-09-05T07:28:07.809Z,99.90
2018-09-05T07:30:48.607Z,99.90
2018-09-05T07:33:29.218Z,99.90
2018-09-05T07:35:57.610Z,99.90
2018-09-05T07:38:25.943Z,99.90
2018-09-05T07:41:06.228Z,99.90
2018-09-05T07:43:47.196Z,99.90
2018-09-05T07:46:27.695Z,99.90
2018-09-05T07:48:55.909Z,99.90
2018-09-05T07:51:24.208Z,99.90
2018-09-05T07:54:04.916Z,99.90
2018-09-05T07:56:45.557Z,99.90
2018-09-05T07:59:26.183Z,99.90
2018-09-05T08:01:54.424Z,99.90
2018-09-05T08:04:34.740Z,99.90
2018-09-05T08:07:15.507Z,99.90
2018-09-05T08:09:56.389Z,99.90
2018-09-05T08:12:37.027Z,99.90
2018-09-05T08:15:17.589Z,99.90
2018-09-05T08:17:59.237Z,99.90
2018-09-05T08:20:39.849Z,99.90
2018-09-05T08:23:21.728Z,99.90
2018-09-05T08:26:02.265Z,99.90
2018-09-05T08:28:42.957Z,99.90
2018-09-05T08:31:12.141Z,99.90
2018-09-05T08:33:52.343Z,99.90
2018-09-05T08:36:33.239Z,99.90
2018-09-05T08:39:14.646Z,99.90
2018-09-05T08:41:42.889Z,99.90
2018-09-05T08:44:11.292Z,99.90
2018-09-05T08:46:51.606Z,99.90
2018-09-05T08:49:32.255Z,99.90
2018-09-05T08:52:13.125Z,99.90
2018-09-05T08:54:53.484Z,99.90
2018-09-05T08:57:34.183Z,99.90
2018-09-05T09:00:02.457Z,99.90
2018-09-05T09:02:43.581Z,99.90
2018-09-05T09:05:24.378Z,99.90
2018-09-05T09:08:05.015Z,99.90
2018-09-05T09:10:45.755Z,99.90
2018-09-05T09:13:14.167Z,99.90
2018-09-05T09:15:55.209Z,99.90
2018-09-05T09:18:35.787Z,99.90
2018-09-05T09:21:16.450Z,99.90
2018-09-05T09:23:44.688Z,99.90
2018-09-05T09:26:24.899Z,99.90
2018-09-05T09:28:59.200Z,99.90
2018-09-05T09:31:40.188Z,99.90
2018-09-05T09:34:09.452Z,99.90
2018-09-05T09:36:50.551Z,99.90
2018-09-05T09:39:24.253Z,99.90
2018-09-05T09:42:05.334Z,99.90
2018-09-05T09:44:33.914Z,99.90
2018-09-05T09:47:02.279Z,99.90
2018-09-05T09:49:43.161Z,99.90
2018-09-05T09:52:17.018Z,99.90
2018-09-05T09:54:47.595Z,99.90
2018-09-05T09:57:19.693Z,99.90
2018-09-05T09:59:54.354Z,99.60
2018-09-05T10:02:28.120Z,99.20
2018-09-05T10:05:01.696Z,98.20
2018-09-05T10:07:47.636Z,97.90
2018-09-05T10:10:33.160Z,97.40
2018-09-05T10:14:17.894Z,96.40
2018-09-05T10:17:03.499Z,96.10
2018-09-05T10:19:45.492Z,94.50
2018-09-05T10:22:13.733Z,94.60
2018-09-05T10:24:42.002Z,93.10
2018-09-05T10:27:10.273Z,93.30
2018-09-05T10:29:38.451Z,93.10
2018-09-05T10:32:19.215Z,92.80
2018-09-05T10:34:59.572Z,93.40
2018-09-05T10:37:40.171Z,93.60
2018-09-05T10:40:08.405Z,92.10
2018-09-05T10:42:48.677Z,89.20
2018-09-05T10:45:16.962Z,90.00
2018-09-05T10:47:45.127Z,88.90
2018-09-05T10:50:13.362Z,88.00
2018-09-05T10:52:54.853Z,88.40
2018-09-05T10:55:34.963Z,87.40
2018-09-05T10:58:04.074Z,87.20
2018-09-05T11:00:44.351Z,88.10
2018-09-05T11:03:19.032Z,89.00
2018-09-05T11:05:59.650Z,89.30
2018-09-05T11:08:40.232Z,90.60
2018-09-05T11:11:08.450Z,90.30
2018-09-05T11:13:36.648Z,90.90
2018-09-05T11:16:17.265Z,90.30
2018-09-05T11:18:58.046Z,90.40
2018-09-05T11:21:26.346Z,89.40
2018-09-05T11:23:54.622Z,87.20
2018-09-05T11:26:34.945Z,89.30
2018-09-05T11:29:15.511Z,88.60
2018-09-05T11:31:44.544Z,87.00
2018-09-05T11:34:25.141Z,86.20
2018-09-05T11:37:05.751Z,86.10
2018-09-05T11:39:46.100Z,86.60
2018-09-05T11:42:20.346Z,86.20
2018-09-05T11:44:48.615Z,85.80
2018-09-05T11:47:29.113Z,85.60
2018-09-05T11:50:09.715Z,85.90
2018-09-05T11:52:38.128Z,85.70
2018-09-05T11:55:18.957Z,85.50
2018-09-05T11:57:59.626Z,84.90
2018-09-05T12:00:27.989Z,84.40
2018-09-05T12:03:09.531Z,83.70
2018-09-05T12:05:38.138Z,82.20
2018-09-05T12:08:06.651Z,79.90
2018-09-05T12:10:47.661Z,79.00
2018-09-05T12:13:28.254Z,80.20
2018-09-05T12:16:08.904Z,78.20
2018-09-05T12:18:49.417Z,76.30
2018-09-05T12:21:17.643Z,74.10
2018-09-05T12:23:57.974Z,74.90
2018-09-05T12:26:38.601Z,74.50
2018-09-05T12:29:19.560Z,72.20
2018-09-05T12:31:59.674Z,71.50
2018-09-05T12:34:29.338Z,71.00
2018-09-05T12:36:58.031Z,70.70
2018-09-05T12:39:26.315Z,70.20
2018-09-05T12:42:06.589Z,68.60
2018-09-05T12:44:35.876Z,68.10
2018-09-05T12:47:04.196Z,67.50
2018-09-05T12:49:44.763Z,68.60
2018-09-05T12:52:13.891Z,67.70
2018-09-05T12:54:42.130Z,68.50
2018-09-05T12:57:23.004Z,69.60
2018-09-05T13:00:03.499Z,70.50
2018-09-05T13:02:44.149Z,70.90
2018-09-05T13:05:24.780Z,71.00
2018-09-05T13:08:05.264Z,70.90
2018-09-05T13:10:37.715Z,71.40
2018-09-05T13:13:18.707Z,71.90
2018-09-05T13:15:47.064Z,71.80
2018-09-05T13:18:15.956Z,71.30
2018-09-05T13:20:44.333Z,71.10
2018-09-05T13:23:12.538Z,69.90
2018-09-05T13:25:48.400Z,69.30
2018-09-05T13:28:29.305Z,68.80
2018-09-05T13:30:58.690Z,69.10
2018-09-05T13:33:29.087Z,67.60
2018-09-05T13:35:57.341Z,65.10
2018-09-05T13:38:25.778Z,63.00
2018-09-05T13:41:03.935Z,63.10
2018-09-05T13:43:32.588Z,61.10
2018-09-05T13:46:00.968Z,60.90
2018-09-05T13:48:42.402Z,60.60
2018-09-05T13:51:22.658Z,60.10
2018-09-05T13:54:03.481Z,59.70
2018-09-05T13:56:43.677Z,59.10
2018-09-05T13:59:24.981Z,58.60
2018-09-05T14:02:07.350Z,58.40
2018-09-05T14:04:35.585Z,58.30
2018-09-05T14:07:14.824Z,57.70
2018-09-05T14:09:55.089Z,57.70
2018-09-05T14:12:36.214Z,58.20
2018-09-05T14:15:08.967Z,57.70
2018-09-05T14:17:49.455Z,56.50
2018-09-05T14:20:24.432Z,56.70
2018-09-05T14:22:54.061Z,57.70
2018-09-05T14:25:38.472Z,58.10
2018-09-05T14:28:20.121Z,57.30
2018-09-05T14:30:48.415Z,58.60
2018-09-05T14:33:29.366Z,59.00
2018-09-05T14:35:58.131Z,58.20
2018-09-05T14:38:39.461Z,58.50
2018-09-05T14:41:20.318Z,57.60
2018-09-05T14:43:48.669Z,58.00
2018-09-05T14:46:17.918Z,57.10
2018-09-05T14:48:59.722Z,57.40
2018-09-05T14:51:28.251Z,57.30
2018-09-05T14:53:57.707Z,56.70
2018-09-05T14:56:38.629Z,57.20
2018-09-05T14:59:19.215Z,57.50
2018-09-05T15:01:59.869Z,57.30
2018-09-05T15:04:40.512Z,57.90
2018-09-05T15:07:21.060Z,56.80
2018-09-05T15:10:01.645Z,57.70
2018-09-05T15:12:42.386Z,58.00
2018-09-05T15:15:11.151Z,57.80
2018-09-05T15:17:51.522Z,57.40
2018-09-05T15:20:21.932Z,57.10
2018-09-05T15:23:02.969Z,57.30
2018-09-05T15:25:31.278Z,57.50
2018-09-05T15:27:59.508Z,57.60
2018-09-05T15:30:40.122Z,59.20
2018-09-05T15:33:20.616Z,58.80
2018-09-05T15:36:01.885Z,59.30
2018-09-05T15:38:43.100Z,59.80
2018-09-05T15:41:23.502Z,59.90
2018-09-05T15:44:04.189Z,59.70
2018-09-05T15:46:44.826Z,59.20
2018-09-05T15:49:25.332Z,59.40
2018-09-05T15:52:06.203Z,60.00
2018-09-05T15:54:46.830Z,60.00
2018-09-05T15:57:15.385Z,59.90
2018-09-05T15:59:43.822Z,60.00
2018-09-05T16:02:24.550Z,59.60
2018-09-05T16:05:04.749Z,60.90
2018-09-05T16:07:45.356Z,59.90
2018-09-05T16:10:13.691Z,59.70
2018-09-05T16:12:41.962Z,60.00
2018-09-05T16:15:22.763Z,60.00
2018-09-05T16:18:03.896Z,59.80
2018-09-05T16:20:44.855Z,59.80
2018-09-05T16:23:14.019Z,59.80
2018-09-05T16:25:55.233Z,59.80
2018-09-05T16:28:23.440Z,60.80
2018-09-05T16:31:04.563Z,61.40
2018-09-05T16:33:46.845Z,61.40
2018-09-05T16:36:28.592Z,61.00
2018-09-05T16:39:09.688Z,61.10
2018-09-05T16:41:50.763Z,61.80
2018-09-05T16:44:31.397Z,60.40
2018-09-05T16:47:11.937Z,61.90
2018-09-05T16:49:53.347Z,61.80
2018-09-05T16:52:33.528Z,62.70
2018-09-05T16:55:01.869Z,63.20
2018-09-05T16:57:43.027Z,62.70
2018-09-05T17:00:11.539Z,63.40
2018-09-05T17:02:41.113Z,63.40
2018-09-05T17:05:21.321Z,62.90
2018-09-05T17:07:49.559Z,63.50
2018-09-05T17:10:26.100Z,62.90
2018-09-05T17:13:06.493Z,63.40
2018-09-05T17:15:47.285Z,64.00
2018-09-05T17:18:28.501Z,63.70
2018-09-05T17:21:09.765Z,63.40
2018-09-05T17:23:50.294Z,63.80
2018-09-05T17:26:31.224Z,63.70
2018-09-05T17:28:59.468Z,63.70
2018-09-05T17:31:40.469Z,64.20
2018-09-05T17:34:20.894Z,64.40
2018-09-05T17:36:49.847Z,64.50
2018-09-05T17:39:31.104Z,64.10
2018-09-05T17:42:11.832Z,64.20
2018-09-05T17:44:52.868Z,64.50
2018-09-05T17:47:34.230Z,64.50
2018-09-05T17:50:14.824Z,64.80
2018-09-05T17:52:55.729Z,65.10
2018-09-05T17:55:23.924Z,64.70
2018-09-05T17:58:04.798Z,64.90
2018-09-05T18:00:45.397Z,65.90
2018-09-05T18:03:13.675Z,65.00
2018-09-05T18:05:54.591Z,65.00
2018-09-05T18:08:35.497Z,65.40
2018-09-05T18:11:03.830Z,65.30
2018-09-05T18:13:44.779Z,65.60
2018-09-05T18:16:25.178Z,66.20
2018-09-05T18:19:06.248Z,66.10
2018-09-05T18:21:34.557Z,66.20
2018-09-05T18:24:15.018Z,66.00
2018-09-05T18:26:57.308Z,66.40
2018-09-05T18:29:38.188Z,66.80
2018-09-05T18:32:06.415Z,66.90
2018-09-05T18:34:47.363Z,66.70
2018-09-05T18:37:28.138Z,66.40
2018-09-05T18:39:57.135Z,66.90
2018-09-05T18:42:41.584Z,67.70
2018-09-05T18:45:22.432Z,68.20
2018-09-05T18:48:03.159Z,67.50
2018-09-05T18:50:43.858Z,68.40
2018-09-05T18:53:24.562Z,69.40
2018-09-05T18:55:54.876Z,70.80
2018-09-05T18:58:23.272Z,72.40
2018-09-05T19:01:03.743Z,73.10
2018-09-05T19:03:32.427Z,74.40
2018-09-05T19:06:00.748Z,75.10
2018-09-05T19:08:41.729Z,75.80
2018-09-05T19:11:22.114Z,76.00
2018-09-05T19:14:02.822Z,76.40
2018-09-05T19:16:31.319Z,77.00
2018-09-05T19:19:12.280Z,77.50
2018-09-05T19:21:53.063Z,79.00
2018-09-05T19:24:33.639Z,79.80
2018-09-05T19:27:14.018Z,81.20
2018-09-05T19:29:42.591Z,81.90
2018-09-05T19:32:11.532Z,82.80
2018-09-05T19:34:53.003Z,83.50
2018-09-05T19:37:22.355Z,84.30
2018-09-05T19:40:03.013Z,85.30
2018-09-05T19:42:43.618Z,86.20
2018-09-05T19:45:23.994Z,87.20
2018-09-05T19:48:04.593Z,88.20
2018-09-05T19:50:33.027Z,89.10
2018-09-05T19:53:14.274Z,90.30
2018-09-05T19:55:42.811Z,90.50
2018-09-05T19:58:23.942Z,91.30
2018-09-05T20:01:05.029Z,91.70
2018-09-05T20:03:46.120Z,92.10
2018-09-05T20:06:27.184Z,92.70
2018-09-05T20:09:08.421Z,93.10
2018-09-05T20:13:12.225Z,93.50
2018-09-05T20:15:52.771Z,93.90
2018-09-05T20:18:33.007Z,94.50
2018-09-05T20:21:13.638Z,95.00
2018-09-05T20:23:53.922Z,95.40
2018-09-05T20:26:34.964Z,96.00
2018-09-05T20:29:03.444Z,96.20
2018-09-05T20:31:38.699Z,96.90
2018-09-05T20:34:19.778Z,97.30
2018-09-05T20:37:00.581Z,97.80
2018-09-05T20:39:40.910Z,98.40
2018-09-05T20:42:21.716Z,99.00
2018-09-05T20:45:02.536Z,99.60
2018-09-05T20:47:43.072Z,99.90
2018-09-05T20:50:11.411Z,99.90
2018-09-05T20:52:52.575Z,99.90
2018-09-05T20:55:33.177Z,99.90
2018-09-05T20:58:14.278Z,99.90
2018-09-05T21:00:42.580Z,99.90
2018-09-05T21:03:23.291Z,99.90
2018-09-05T21:06:03.816Z,99.90
2018-09-05T21:08:45.269Z,99.90
2018-09-05T21:11:26.130Z,99.90
2018-09-05T21:14:07.548Z,99.90
2018-09-05T21:16:48.327Z,99.90
2018-09-05T21:19:28.954Z,99.90
2018-09-05T21:22:09.578Z,99.90
2018-09-05T21:24:50.155Z,99.90
2018-09-05T21:27:19.125Z,99.90
2018-09-05T21:29:59.504Z,99.90
2018-09-05T21:32:28.376Z,99.90
2018-09-05T21:34:57.085Z,99.90
2018-09-05T21:37:25.549Z,99.90
2018-09-05T21:40:06.224Z,99.90
2018-09-05T21:42:46.716Z,99.90
2018-09-05T21:45:27.271Z,99.90
2018-09-05T21:48:07.838Z,99.90
2018-09-05T21:50:49.651Z,99.90
2018-09-05T21:53:30.126Z,99.90
2018-09-05T21:56:10.654Z,99.90
2018-09-05T21:58:51.193Z,99.90
2018-09-05T22:01:20.375Z,99.90
2018-09-05T22:04:00.658Z,99.90
2018-09-05T22:06:41.160Z,99.90
2018-09-05T22:09:21.924Z,99.90
2018-09-05T22:12:02.612Z,99.90
2018-09-05T22:14:43.182Z,99.90
2018-09-05T22:17:23.765Z,99.90
2018-09-05T22:20:04.172Z,99.90
2018-09-05T22:22:44.759Z,99.90
2018-09-05T22:25:13.171Z,99.90
2018-09-05T22:27:54.209Z,99.90
2018-09-05T22:30:22.426Z,99.90
2018-09-05T22:32:50.728Z,99.90
2018-09-05T22:35:20.464Z,99.90
2018-09-05T22:37:48.732Z,99.90
2018-09-05T22:40:16.996Z,99.90
2018-09-05T22:42:56.666Z,99.90
2018-09-05T22:45:36.982Z,99.90
2018-09-05T22:48:23.063Z,99.90
2018-09-05T22:51:09.520Z,99.90
2018-09-05T22:53:54.984Z,99.90
2018-09-05T22:56:40.629Z,99.90
2018-09-05T22:59:20.886Z,99.90
2018-09-05T23:01:59.065Z,99.90
2018-09-05T23:04:39.291Z,99.90
2018-09-05T23:07:20.028Z,99.90
2018-09-05T23:10:00.764Z,99.90
2018-09-05T23:12:41.346Z,99.90
2018-09-05T23:15:22.143Z,99.90
2018-09-05T23:18:02.583Z,99.90
2018-09-05T23:20:43.241Z,99.90
2018-09-05T23:23:23.974Z,99.90
2018-09-05T23:26:04.544Z,99.90
2018-09-05T23:28:45.192Z,99.90
2018-09-05T23:31:25.981Z,99.90
2018-09-05T23:33:55.093Z,99.90
2018-09-05T23:36:35.448Z,99.90
2018-09-05T23:39:16.257Z,99.90
2018-09-05T23:41:57.038Z,99.90
2018-09-05T23:44:37.640Z,99.90
2018-09-05T23:47:18.192Z,99.90
2018-09-05T23:49:46.440Z,99.90
2018-09-05T23:52:27.059Z,99.90
2018-09-05T23:55:08.172Z,99.90
2018-09-05T23:57:48.997Z,99.90
